Flight Track Log - Related Links

Times and Time Zones

All times are in EDT time to prevent confusion due to time zone crossing. See the SWA1276 flight status page for this flight to view local times or setup timezone preferences in your user account.

Time Position Orientation Groundspeed Altitude Reporting Facility
EDT Latitude Longitude Course Direction KTS MPH feet Rate Location/Type
Wed 03:44:29 PM 33.9500 -118.4500 244° Southwest 158 182 1,500  Level Southern TRACON
Wed 03:44:54 PM 33.9378 -118.4808 244° Southwest 179 206 2,100 1,655 Climbing Los Center
Wed 03:45:56 PM 33.8861 -118.5367 222° Southwest 251 289 3,900 2,129 Climbing Los Center
Wed 03:46:58 PM 33.8317 -118.5950 222° Southwest 277 319 6,500 3,168 Climbing Los Center
Wed 03:48:01 PM 33.7453 -118.5786 171° South 302 348 10,500 3,168 Climbing Los Center
Wed 03:49:03 PM 33.6883 -118.4936 129° Southeast 339 390 13,100 2,419 Climbing Los Center
Wed 03:50:05 PM 33.6558 -118.3853 110° East 350 403 15,500 2,323 Climbing Los Center
Wed 03:51:07 PM 33.6433 -118.2628 97° East 379 436 17,900 2,516 Climbing Los Center
Wed 03:52:09 PM 33.6439 -118.1058 90° East 398 458 20,700 2,419 Climbing Los Center
Wed 03:53:11 PM 33.6442 -117.9683 90° East 413 475 22,900 1,984 Climbing Los Center
Wed 03:54:13 PM 33.6433 -117.8256 90° East 427 491 24,800 1,839 Climbing Los Center
Wed 03:55:15 PM 33.6431 -117.6817 90° East 434 499 26,700 1,968 Climbing Los Center
Wed 03:56:18 PM 33.6422 -117.5042 90° East 444 511 28,900 1,728 Climbing Los Center
Wed 03:57:20 PM 33.6417 -117.3539 90° East 451 519 30,300 1,597 Climbing Los Center
Wed 03:58:22 PM 33.6403 -117.2025 91° East 455 524 32,200 1,694 Climbing Los Center
Wed 03:59:24 PM 33.6386 -117.0519 91° East 454 522 33,800 1,412 Climbing Los Center
Wed 04:00:38 PM 33.6381 -116.9019 90° East 452 520 35,400 1,401 Climbing Los Center
Wed 04:01:41 PM 33.6350 -116.7067 91° East 440 506 37,000 768 Climbing Los Center
Wed 04:02:43 PM 33.6347 -116.5592 90° East 442 509 37,000  Level Los Center
Wed 04:03:45 PM 33.6314 -116.4103 91° East 444 511 37,000  Level Los Center
Wed 04:04:47 PM 33.6289 -116.2606 91° East 446 513 37,000  Level Los Center
Wed 04:05:49 PM 33.6269 -116.1094 91° East 452 520 37,000  Level Los Center
Wed 04:06:52 PM 33.6231 -115.9319 91° East 445 512 37,000  Level Los Center
Wed 04:07:54 PM 33.6042 -115.7831 99° East 448 516 37,000  Level Los Center
Wed 04:08:56 PM 33.5811 -115.6361 101° East 449 517 37,000  Level Los Center
Wed 04:09:58 PM 33.5600 -115.4903 100° East 446 513 37,000  Level Los Center
Wed 04:11:00 PM 33.5367 -115.3444 101° East 444 511 37,000  Level Los Center
Wed 04:12:02 PM 33.5142 -115.1969 100° East 448 516 37,000  Level Los Center
Wed 04:13:04 PM 33.4881 -115.0219 100° East 446 513 37,000  Level Los Center
Wed 04:14:07 PM 33.4642 -114.8758 101° East 448 516 37,000  Level Los Center
Wed 04:15:09 PM 33.4425 -114.7297 100° East 446 513 37,000  Level Los Center
Wed 04:16:11 PM 33.4192 -114.5867 101° East 441 507 37,000  Level Los Center
Wed 04:16:33 PM 33.4161 -114.5431 95° East 444 511 37,000  Level Albuquerque Center
Wed 04:17:34 PM 33.3925 -114.3994 101° East 442 509 37,000  Level Albuquerque Center
Wed 04:18:36 PM 33.3642 -114.2256 101° East 443 510 37,000  Level Albuquerque Center
Wed 04:19:38 PM 33.3425 -114.0772 100° East 449 517 37,000  Level Albuquerque Center
Wed 04:20:40 PM 33.3186 -113.9311 101° East 450 518 37,000  Level Albuquerque Center
Wed 04:21:42 PM 33.2939 -113.7842 101° East 450 518 37,000  Level Albuquerque Center
Wed 04:22:44 PM 33.2694 -113.6372 101° East 451 519 37,000  Level Albuquerque Center
Wed 04:23:46 PM 33.2458 -113.4900 101° East 451 519 37,000  Level Albuquerque Center
Wed 04:24:48 PM 33.2164 -113.3144 101° East 450 518 37,000  Level Albuquerque Center
Wed 04:25:50 PM 33.1911 -113.1686 102° East 448 516 37,000  Level Albuquerque Center
Wed 04:26:52 PM 33.1664 -113.0233 101° East 447 514 37,000  Level Albuquerque Center
Wed 04:27:54 PM 33.1417 -112.8783 101° East 446 513 37,000  Level Albuquerque Center
Wed 04:28:57 PM 33.1156 -112.7306 102° East 450 518 37,000  Level Albuquerque Center
Wed 04:29:59 PM 33.0903 -112.5836 102° East 452 520 37,000  Level Albuquerque Center
Wed 04:31:01 PM 33.0644 -112.4389 102° East 446 513 37,000  Level Albuquerque Center
Wed 04:32:03 PM 33.0333 -112.2625 102° East 452 520 37,000  Level Albuquerque Center
Wed 04:33:05 PM 33.0103 -112.1278 101° East 456 525 37,000  Level Albuquerque Center
Wed 04:34:07 PM 32.9847 -111.9808 102° East 456 525 37,000  Level Albuquerque Center
Wed 04:35:09 PM 32.9522 -111.8031 102° East 460 529 37,000  Level Albuquerque Center
Wed 04:36:11 PM 32.9256 -111.6556 102° East 460 529 37,000  Level Albuquerque Center
Wed 04:37:13 PM 32.8983 -111.5081 102° East 460 529 37,000  Level Albuquerque Center
Wed 04:38:15 PM 32.8717 -111.3603 102° East 459 528 37,000  Level Albuquerque Center
Wed 04:39:17 PM 32.8447 -111.2131 102° East 458 527 37,000  Level Albuquerque Center
Wed 04:40:19 PM 32.8158 -111.0672 103° East 457 526 37,000  Level Albuquerque Center
Wed 04:41:21 PM 32.7844 -110.8919 102° East 455 524 37,000  Level Albuquerque Center
Wed 04:42:23 PM 32.7547 -110.7458 104° East 455 524 37,000  Level Albuquerque Center
Wed 04:43:25 PM 32.7283 -110.5969 102° East 460 529 37,000  Level Albuquerque Center
Wed 04:44:27 PM 32.6994 -110.4481 103° East 465 535 37,000  Level Albuquerque Center
Wed 04:45:29 PM 32.6692 -110.3006 104° East 466 536 37,000  Level Albuquerque Center
Wed 04:46:31 PM 32.6344 -110.1208 103° East 469 540 37,000  Level Albuquerque Center
Wed 04:47:33 PM 32.6047 -109.9697 103° East 475 547 37,000  Level Albuquerque Center
Wed 04:48:35 PM 32.5756 -109.8194 103° East 474 545 37,000  Level Albuquerque Center
Wed 04:49:37 PM 32.5439 -109.6658 104° East 483 556 37,000  Level Albuquerque Center
Wed 04:50:39 PM 32.5047 -109.4828 104° East 485 558 37,000  Level Albuquerque Center
Wed 04:51:41 PM 32.4756 -109.3319 103° East 480 552 37,000  Level Albuquerque Center
Wed 04:52:43 PM 32.4444 -109.1817 104° East 479 551 37,000  Level Albuquerque Center
Wed 04:53:45 PM 32.4142 -109.0303 103° East 479 551 37,000  Level Albuquerque Center
Wed 04:54:47 PM 32.3772 -108.8506 104° East 477 549 37,000  Level Albuquerque Center
Wed 04:55:49 PM 32.3456 -108.7028 104° East 474 545 37,000  Level Albuquerque Center
Wed 04:56:51 PM 32.3153 -108.5536 103° East 473 544 37,000  Level Albuquerque Center
Wed 04:57:53 PM 32.2828 -108.3992 104° East 477 549 37,000  Level Albuquerque Center
Wed 04:58:55 PM 32.2508 -108.2489 104° East 475 547 37,000  Level Albuquerque Center
Wed 04:59:57 PM 32.2186 -108.0961 104° East 479 551 37,000  Level Albuquerque Center
Wed 05:00:59 PM 32.1786 -107.9128 104° East 482 555 37,000  Level Albuquerque Center
Wed 05:02:01 PM 32.1461 -107.7606 104° East 483 556 37,000  Level Albuquerque Center
Wed 05:03:03 PM 32.1136 -107.6075 104° East 484 557 37,000  Level Albuquerque Center
Wed 05:04:05 PM 32.0808 -107.4556 104° East 484 557 37,000  Level Albuquerque Center
Wed 05:05:07 PM 32.0414 -107.2747 104° East 481 554 37,000  Level Albuquerque Center
Wed 05:06:09 PM 32.0083 -107.1242 104° East 481 554 37,000  Level Albuquerque Center
Wed 05:07:11 PM 31.9747 -106.9736 105° East 480 552 37,000  Level Albuquerque Center
Wed 05:08:13 PM 31.9411 -106.8239 105° East 477 549 37,000  Level Albuquerque Center
Wed 05:09:15 PM 31.9067 -106.6747 105° East 475 547 37,000  Level Albuquerque Center
Wed 05:10:17 PM 31.8669 -106.5044 105° East 477 549 37,000  Level Albuquerque Center
Wed 05:11:19 PM 31.8328 -106.3525 105° East 480 552 37,000  Level Albuquerque Center
Wed 05:12:21 PM 31.7967 -106.2014 106° East 487 560 37,000  Level Albuquerque Center
Wed 05:13:23 PM 31.7581 -106.0531 107° East 479 551 37,000  Level Albuquerque Center
Wed 05:14:25 PM 31.7203 -105.9019 106° East 482 555 37,000  Level Albuquerque Center
Wed 05:15:27 PM 31.6739 -105.7200 107° East 484 557 37,000  Level Albuquerque Center
Wed 05:16:29 PM 31.6361 -105.5675 106° East 487 560 37,000  Level Albuquerque Center
Wed 05:17:31 PM 31.5972 -105.4161 107° East 483 556 37,000  Level Albuquerque Center
Wed 05:18:33 PM 31.5592 -105.2614 106° East 490 564 37,000  Level Albuquerque Center
Wed 05:19:35 PM 31.5183 -105.1031 107° East 495 570 37,000  Level Albuquerque Center
Wed 05:20:37 PM 31.4797 -104.9503 106° East 496 571 37,000  Level Albuquerque Center
Wed 05:21:39 PM 31.4392 -104.7950 107° East 496 571 37,000  Level Albuquerque Center
Wed 05:22:41 PM 31.3908 -104.6081 107° East 497 572 37,000  Level Albuquerque Center
Wed 05:24:00 PM 31.3403 -104.4245 108° East  Level FlightAware
Wed 05:24:52 PM 31.2967 -104.2733 108° East 496 571 37,000  Level Houston Center
Wed 05:25:48 PM 31.2697 -104.1475 104° East 492 566 37,000  Level Albuquerque Center
Wed 05:26:50 PM 31.2297 -103.9967 107° East 487 560 37,000  Level Albuquerque Center
Wed 05:27:52 PM 31.1883 -103.8428 107° East 493 567 37,000  Level Albuquerque Center
Wed 05:28:54 PM 31.1389 -103.6625 108° East 499 574 37,000  Level Albuquerque Center
Wed 05:29:56 PM 31.0972 -103.5069 107° East 503 579 37,000  Level Albuquerque Center
Wed 05:30:58 PM 31.0539 -103.3514 108° East 504 580 37,000  Level Albuquerque Center
Wed 05:32:00 PM 31.0114 -103.1958 108° East 505 581 37,000  Level Albuquerque Center
Wed 05:33:02 PM 30.9611 -103.0092 107° East 505 581 37,000  Level Albuquerque Center
Wed 05:34:04 PM 30.9186 -102.8511 107° East 510 587 37,000  Level Albuquerque Center
Wed 05:35:06 PM 30.8781 -102.6922 107° East 515 593 37,000 -48 Level Albuquerque Center
Wed 05:36:08 PM 30.8381 -102.5367 107° East 510 587 36,900  Descending Albuquerque Center
Wed 05:37:10 PM 30.7978 -102.3839 107° East 504 580 37,000 48 Climbing Albuquerque Center
Wed 05:38:12 PM 30.7492 -102.1992 107° East 503 579 37,000  Level Albuquerque Center
Wed 05:39:14 PM 30.7081 -102.0450 107° East 504 580 37,000  Level Albuquerque Center
Wed 05:40:16 PM 30.6669 -101.8922 107° East 501 577 37,000  Level Albuquerque Center
Wed 05:41:18 PM 30.6261 -101.7389 107° East 501 577 37,000  Level Albuquerque Center
Wed 05:42:28 PM 30.5772 -101.5569 107° East 500 575 37,000  Level Houston Center
Wed 05:43:30 PM 30.5375 -101.4044 107° East 497 572 37,000  Level Houston Center
Wed 05:44:32 PM 30.4958 -101.2525 108° East 496 571 37,000  Level Houston Center
Wed 05:45:34 PM 30.4544 -101.0997 107° East 496 571 37,000  Level Houston Center
Wed 05:46:36 PM 30.4042 -100.9178 108° East 495 570 37,000  Level Houston Center
Wed 05:47:38 PM 30.3622 -100.7686 108° East 490 564 37,000  Level Houston Center
Wed 05:48:41 PM 30.3214 -100.6178 107° East 488 562 37,000  Level Houston Center
Wed 05:49:43 PM 30.2797 -100.4683 108° East 487 560 37,000  Level Houston Center
Wed 05:50:45 PM 30.2378 -100.3183 108° East 486 559 37,000  Level Houston Center
Wed 05:51:47 PM 30.1958 -100.1667 108° East 483 556 37,000  Level Houston Center
Wed 05:52:49 PM 30.1528 -100.0139 108° East 490 564 37,000  Level Houston Center
Wed 05:53:51 PM 30.1089 -99.8611 108° East 498 573 37,000  Level Houston Center
Wed 05:54:53 PM 30.0572 -99.6794 108° East 496 571 37,000  Level Houston Center
Wed 05:55:55 PM 30.0128 -99.5261 108° East 501 577 37,000  Level Houston Center
Wed 05:56:58 PM 29.9675 -99.3719 109° East 507 583 37,000  Level Houston Center
Wed 05:58:00 PM 29.9225 -99.2167 108° East 512 589 37,000  Level Houston Center
Wed 05:59:02 PM 29.8622 -99.0494 113° Southeast 508 585 37,000  Level Houston Center
Wed 06:00:04 PM 29.8025 -98.8883 113° Southeast 507 583 37,000  Level Houston Center
Wed 06:01:06 PM 29.7464 -98.7369 113° Southeast 512 589 37,000  Level Houston Center
Wed 06:02:08 PM 29.6861 -98.5753 113° Southeast 510 587 37,000  Level Houston Center
Wed 06:03:10 PM 29.6369 -98.4411 113° Southeast 509 586 37,000  Level Houston Center
Wed 06:04:13 PM 29.5825 -98.2664 110° East 518 596 37,000  Level Houston Center
Wed 06:05:15 PM 29.5292 -98.1014 110° East 512 589 37,000  Level Houston Center
Wed 06:06:17 PM 29.4792 -97.9469 110° East 514 592 37,000 -532 Level Houston Center
Wed 06:07:19 PM 29.4564 -97.7806 99° East 541 623 35,900 -1,694 Descending Houston Center
Wed 06:08:21 PM 29.4417 -97.6103 96° East 543 625 33,500 -2,226 Descending Houston Center
Wed 06:09:23 PM 29.4281 -97.4433 95° East 529 609 31,300 -2,129 Descending Houston Center
Wed 06:10:25 PM 29.4142 -97.2817 96° East 515 593 29,100 -2,274 Descending Houston Center
Wed 06:11:27 PM 29.3992 -97.0978 95° East 485 558 26,600 -2,112 Descending Houston Center
Wed 06:12:30 PM 29.3858 -96.9522 96° East 464 534 24,700 -1,680 Descending Houston Center
Wed 06:13:32 PM 29.3756 -96.8256 95° East 443 510 23,100 -1,790 Descending Houston Center
Wed 06:14:34 PM 29.3622 -96.6761 96° East 413 475 21,000 -1,898 Descending Houston Center
Wed 06:15:10 PM 29.3556 -96.6022 96° East 397 457 20,000 -1,548 Descending Houston Center
Wed 06:15:36 PM 29.3506 -96.5511 96° East 397 457 19,400 -1,703 Descending Houston Center
Wed 06:16:24 PM 29.3408 -96.4483 96° East 376 433 17,900 -1,486 Descending Houston Center
Wed 06:17:25 PM 29.3481 -96.3350 86° East 370 426 16,700 -1,105 Descending Houston Center
Wed 06:17:40 PM 29.3528 -96.3200 70° East 369 425 16,500 -984 Descending Houston Center
Wed 06:18:26 PM 29.3844 -96.2206 70° East 376 433 15,700 -871 Descending Houston Center
Wed 06:18:42 PM 29.3867 -96.2081 78° East 375 432 15,600 -984 Descending Houston Center
Wed 06:19:27 PM 29.4169 -96.1117 70° East 369 425 14,700 -1,143 Descending Houston Center
Wed 06:19:45 PM 29.4267 -96.0758 73° East 367 422 14,400 -984 Descending Houston Center
Wed 06:20:28 PM 29.4511 -95.9950 71° East 359 413 13,700 -968 Descending Houston Center
Wed 06:20:47 PM 29.4597 -95.9644 72° East 359 413 13,400 -984 Descending Houston Center
Wed 06:21:29 PM 29.4836 -95.8881 70° East 351 404 12,700 -968 Descending Houston Center
Wed 06:21:49 PM 29.4911 -95.8592 73° East 352 405 12,400 -1,082 Descending Houston Center
Wed 06:22:30 PM 29.5142 -95.7839 71° East 347 399 11,600 -1,065 Descending Houston Center
Wed 06:22:51 PM 29.5225 -95.7539 72° East 347 399 11,300 -1,355 Descending Houston Center
Wed 06:23:32 PM 29.5450 -95.6794 71° East 338 389 10,200 -1,258 Descending Houston Center
Wed 06:23:53 PM 29.5528 -95.6533 71° East 335 386 10,000 -1,279 Descending Houston Center
Wed 06:24:33 PM 29.5758 -95.5797 70° East 315 362 8,900 -1,355 Descending Houston Center
Wed 06:24:55 PM 29.5817 -95.5578 73° East 320 368 8,600 -1,475 Descending Houston Center
Wed 06:25:34 PM 29.6028 -95.4828 72° East 313 360 7,400 -1,452 Descending Houston Center
Wed 06:25:57 PM 29.6094 -95.4639 68° East 313 360 7,100 -655 Descending Houston Center
Wed 06:26:29 PM 29.6161 -95.3994 83° East 264 304 6,800 -667 Descending Houston Center
Wed 06:27:00 PM 29.6106 -95.3606 99° East 267 307 6,400 -689 Descending Houston Center
Wed 06:27:30 PM 29.5908 -95.3306 127° Southeast 226 260 6,100 -871 Descending Houston Center
Wed 06:28:02 PM 29.5689 -95.3067 137° Southeast 234 269 5,500 -984 Descending Houston Center
Wed 06:28:31 PM 29.5464 -95.2806 135° Southeast 228 262 5,100 -774 Descending Houston Center
Wed 06:29:04 PM 29.5256 -95.2578 136° Southeast 224 258 4,700 -787 Descending Houston Center
Wed 06:29:32 PM 29.5022 -95.2331 137° Southeast 193 222 4,300 -871 Descending Houston Center
Wed 06:30:06 PM 29.4878 -95.2169 136° Southeast 201 231 3,800 -1,279 Descending Houston Center
Wed 06:30:33 PM 29.4767 -95.1858 112° Southeast 186 214 3,000 -1,355 Descending Houston Center
Wed 06:31:08 PM 29.4914 -95.1556 61° Northeast 200 230 2,400 -787 Descending Houston Center
Wed 06:31:34 PM 29.5083 -95.1411 37° Northeast 190 219 2,200 -194 Descending Houston Center
Wed 06:32:10 PM 29.5347 -95.1511 342° North 196 226 2,200  Level Houston Center
Wed 06:32:41 PM 29.5581 -95.1783 315° West 196 226 2,200 -516 Level Houston Center
Wed 06:33:43 PM 29.5908 -95.2153 316° Northwest 166 191 1,400 -774 Descending Houston Center
Wed 06:34:14 PM 29.6039 -95.2303 315° West 173 199 1,000 -689 Descending Houston Center
Wed 06:34:44 PM 29.6167 -95.2458 313° West 122 140 700 -571 Descending Houston Center
Wed 06:35:17 PM 29.6278 -95.2589 314° West 142 163 400 -379 Descending Houston Center
Wed 06:36:19 PM 29.6514 -95.2853 316° Northwest 136 157 100 -290 Descending Houston Center

Login

Don't have an account? Register now (free) for customized features, flight alerts, and more!